Terminal Aerodrome Forecast
Issued by NWS

Home | Current Version | Previous Version | Text Only | Print | Product List | Glossary On
Versions: 1 2 3 4 5 6 7 8 9 10 11 12 13 14 15 16
654
FTUS43 KIND 281843 AAA
TAFBMG
TAF AMD
KBMG 281843Z 2819/2918 02005KT P6SM VCTS SCT025CB BKN060
     FM282200 32008KT P6SM VCSH BKN070
     FM290100 32006KT P6SM BKN070
     FM290700 32005KT P6SM BKN015
     FM290900 33004KT 5SM BR OVC010 PROB30 2911/2912 2SM -SHRA BR
      OVC005
     FM291500 01006KT P6SM OVC010
     FM291700 01006KT P6SM BKN035=

USA.gov is the U.S. government's official web portal to all federal, state and local government web resources and services.